createdAt,value
2019-02-23T00:00:51.557Z,69.13
2019-02-23T00:03:23.406Z,69.10
2019-02-23T00:05:53.502Z,70.10
2019-02-23T00:08:25.875Z,68.63
2019-02-23T00:10:55.712Z,61.17
2019-02-23T00:13:25.553Z,76.17
2019-02-23T00:15:56.965Z,55.00
2019-02-23T00:18:26.782Z,63.87
2019-02-23T00:20:56.585Z,55.67
2019-02-23T00:26:33.414Z,65.37
2019-02-23T00:29:09.493Z,65.67
2019-02-23T00:31:45.862Z,62.23
2019-02-23T00:34:15.862Z,71.97
2019-02-23T00:36:45.567Z,63.27
2019-02-23T00:39:22.225Z,63.87
2019-02-23T00:41:56.579Z,65.83
2019-02-23T00:44:27.221Z,62.20
2019-02-23T00:46:57.258Z,75.27
2019-02-23T00:49:35.830Z,68.23
2019-02-23T00:51:58.661Z,69.87
2019-02-23T00:54:28.811Z,72.77
2019-02-23T00:56:58.542Z,55.57
2019-02-23T00:59:28.809Z,70.87
2019-02-23T01:02:03.635Z,66.80
2019-02-23T01:04:33.582Z,68.90
2019-02-23T01:07:09.255Z,72.40
2019-02-23T01:09:41.592Z,78.80
2019-02-23T01:12:14.082Z,67.03
2019-02-23T01:14:47.045Z,61.53
2019-02-23T01:17:21.691Z,56.87
2019-02-23T01:19:51.690Z,66.77
2019-02-23T01:22:21.538Z,67.97
2019-02-23T01:24:53.721Z,62.43
2019-02-23T01:27:23.445Z,70.23
2019-02-23T01:29:53.425Z,77.83
2019-02-23T01:32:23.317Z,71.27
2019-02-23T01:34:53.438Z,76.93
2019-02-23T01:37:24.627Z,64.57
2019-02-23T01:39:57.682Z,74.60
2019-02-23T01:42:29.930Z,77.77
2019-02-23T01:45:00.571Z,72.77
2019-02-23T01:47:33.740Z,77.40
2019-02-23T01:50:05.091Z,77.70
2019-02-23T01:52:37.222Z,79.87
2019-02-23T01:55:09.919Z,72.23
2019-02-23T01:57:40.702Z,81.13
2019-02-23T02:00:24.546Z,68.13
2019-02-23T02:02:54.486Z,65.07
2019-02-23T02:05:25.962Z,66.40
2019-02-23T02:07:58.771Z,67.00
2019-02-23T02:10:30.138Z,67.43
2019-02-23T02:13:01.182Z,67.83
2019-02-23T02:15:31.310Z,74.17
2019-02-23T02:18:01.094Z,79.20
2019-02-23T02:20:33.666Z,67.50
2019-02-23T02:23:04.710Z,63.80
2019-02-23T02:25:37.795Z,73.30
2019-02-23T02:28:07.666Z,61.60
2019-02-23T02:30:37.446Z,74.23
2019-02-23T02:33:10.572Z,64.77
2019-02-23T02:35:42.823Z,54.73
2019-02-23T02:38:16.297Z,55.50
2019-02-23T02:40:46.092Z,58.70
2019-02-23T02:43:19.185Z,65.43
2019-02-23T02:45:51.496Z,72.10
2019-02-23T02:48:22.006Z,62.80
2019-02-23T02:50:54.723Z,59.67
2019-02-23T02:53:24.638Z,61.03
2019-02-23T02:55:54.320Z,63.00
2019-02-23T02:58:24.054Z,59.47
2019-02-23T03:00:53.856Z,62.93
2019-02-23T03:03:26.306Z,50.03
2019-02-23T03:05:56.071Z,54.37
2019-02-23T03:08:25.879Z,66.57
2019-02-23T03:10:55.566Z,56.17
2019-02-23T03:13:25.321Z,65.27
2019-02-23T03:15:57.899Z,58.40
2019-02-23T03:18:28.932Z,56.33
2019-02-23T03:21:02.518Z,55.30
2019-02-23T03:23:32.349Z,64.67
2019-02-23T03:26:02.065Z,52.87
2019-02-23T03:28:31.842Z,67.17
2019-02-23T03:31:01.921Z,58.70
2019-02-23T03:33:34.737Z,59.47
2019-02-23T03:36:15.255Z,69.13
2019-02-23T03:38:46.452Z,55.67
2019-02-23T03:41:19.081Z,54.50
2019-02-23T03:43:52.796Z,52.07
2019-02-23T03:46:22.665Z,61.47
2019-02-23T03:48:52.491Z,55.63
2019-02-23T03:51:22.282Z,55.37
2019-02-23T03:53:54.431Z,56.43
2019-02-23T03:56:25.799Z,60.40
2019-02-23T03:58:57.364Z,62.30
2019-02-23T04:01:27.061Z,62.77
2019-02-23T04:03:58.041Z,54.87
2019-02-23T04:06:32.336Z,48.87
2019-02-23T04:09:02.636Z,60.07
2019-02-23T04:11:32.930Z,65.70
2019-02-23T04:14:04.244Z,69.10
2019-02-23T04:16:34.019Z,67.90
2019-02-23T04:19:04.763Z,70.90
2019-02-23T04:21:34.543Z,72.00
2019-02-23T04:24:04.694Z,79.07
2019-02-23T04:26:43.915Z,80.43
2019-02-23T04:29:13.626Z,80.67
2019-02-23T04:31:43.462Z,85.87
2019-02-23T04:34:13.286Z,91.87
2019-02-23T04:36:53.982Z,72.87
2019-02-23T04:39:30.732Z,80.60
2019-02-23T04:42:03.577Z,81.53
2019-02-23T04:44:36.164Z,92.03
2019-02-23T04:47:12.279Z,76.10
2019-02-23T04:49:42.049Z,76.03
2019-02-23T04:52:14.641Z,79.80
2019-02-23T04:54:44.438Z,71.40
2019-02-23T04:57:14.150Z,75.03
2019-02-23T04:59:43.974Z,74.10
2019-02-23T05:02:15.476Z,79.77
2019-02-23T05:04:46.628Z,76.87
2019-02-23T05:07:19.445Z,79.77
2019-02-23T05:09:49.655Z,70.97
2019-02-23T05:12:22.738Z,64.93
2019-02-23T05:14:55.603Z,71.07
2019-02-23T05:17:27.729Z,70.97
2019-02-23T05:20:02.480Z,82.70
2019-02-23T05:22:32.166Z,67.30
2019-02-23T05:25:01.956Z,65.77
2019-02-23T05:27:35.983Z,67.33
2019-02-23T05:30:08.547Z,68.60
2019-02-23T05:32:40.797Z,65.57
2019-02-23T05:35:11.402Z,68.63
2019-02-23T05:37:41.170Z,68.40
2019-02-23T05:40:13.350Z,57.07
2019-02-23T05:42:44.453Z,68.43
2019-02-23T05:45:14.252Z,70.07
2019-02-23T05:47:43.967Z,69.70
2019-02-23T05:50:26.631Z,70.37
2019-02-23T05:52:56.355Z,63.33
2019-02-23T05:55:30.614Z,68.33
2019-02-23T05:58:00.491Z,71.03
2019-02-23T06:00:30.302Z,69.83
2019-02-23T06:03:00.014Z,73.00
2019-02-23T06:05:29.898Z,74.03
2019-02-23T06:08:03.241Z,70.37
2019-02-23T06:10:33.007Z,77.70
2019-02-23T06:13:02.822Z,80.47
2019-02-23T06:15:34.128Z,78.53
2019-02-23T06:18:04.188Z,60.93
2019-02-23T06:20:38.369Z,68.50
2019-02-23T06:23:11.235Z,63.07
2019-02-23T06:25:40.969Z,65.07
2019-02-23T06:28:10.818Z,67.60
2019-02-23T06:30:40.514Z,66.13
2019-02-23T06:33:11.113Z,65.83
2019-02-23T06:35:40.890Z,56.87
2019-02-23T06:38:10.704Z,70.07
2019-02-23T06:40:40.453Z,64.07
2019-02-23T06:43:10.862Z,70.27
2019-02-23T06:45:40.699Z,56.17
2019-02-23T06:48:10.536Z,54.67
2019-02-23T06:50:42.775Z,60.27
2019-02-23T06:53:18.214Z,59.33
2019-02-23T06:55:49.555Z,58.77
2019-02-23T06:58:20.572Z,59.50
2019-02-23T07:00:57.286Z,57.77
2019-02-23T07:03:28.646Z,63.43
2019-02-23T07:06:02.839Z,53.37
2019-02-23T07:08:35.932Z,61.33
2019-02-23T07:11:07.014Z,58.47
2019-02-23T07:13:38.004Z,69.70
2019-02-23T07:16:07.710Z,70.20
2019-02-23T07:18:40.082Z,67.93
2019-02-23T07:21:13.286Z,68.70
2019-02-23T07:23:43.078Z,76.23
2019-02-23T07:26:12.939Z,65.57
2019-02-23T07:28:45.201Z,64.47
2019-02-23T07:31:15.262Z,64.63
2019-02-23T07:33:45.123Z,66.47
2019-02-23T07:36:15.018Z,67.33
2019-02-23T07:38:47.891Z,63.97
2019-02-23T07:41:17.707Z,65.30
2019-02-23T07:43:50.794Z,62.13
2019-02-23T07:46:35.486Z,70.60
2019-02-23T07:49:06.582Z,60.37
2019-02-23T07:51:36.474Z,61.90
2019-02-23T07:54:14.336Z,68.87
2019-02-23T07:56:47.482Z,67.17
2019-02-23T07:59:24.595Z,71.10
2019-02-23T08:01:54.363Z,70.50
2019-02-23T08:04:31.726Z,59.40
2019-02-23T08:06:57.247Z,65.30
2019-02-23T08:09:29.473Z,60.40
2019-02-23T08:12:01.034Z,70.13
2019-02-23T08:14:30.760Z,54.80
2019-02-23T08:17:00.551Z,69.37
2019-02-23T08:19:32.138Z,62.23
2019-02-23T08:22:02.143Z,70.87
2019-02-23T08:24:31.916Z,60.90
2019-02-23T08:27:05.836Z,63.77
2019-02-23T08:29:35.564Z,80.57
2019-02-23T08:32:06.243Z,78.00
2019-02-23T08:34:36.097Z,59.80
2019-02-23T08:37:07.996Z,59.97
2019-02-23T08:39:39.463Z,60.70
2019-02-23T08:42:10.709Z,58.00
2019-02-23T08:44:42.126Z,58.00
2019-02-23T08:47:11.982Z,59.63
2019-02-23T08:49:41.718Z,54.77
2019-02-23T08:52:17.101Z,50.43
2019-02-23T08:54:46.928Z,51.27
2019-02-23T08:57:19.536Z,47.03
2019-02-23T08:59:57.479Z,52.30
2019-02-23T09:02:31.191Z,52.00
2019-02-23T09:05:05.262Z,58.07
2019-02-23T09:07:35.018Z,52.77
2019-02-23T09:10:07.034Z,43.73
2019-02-23T09:12:37.890Z,41.97
2019-02-23T09:15:07.867Z,39.93
2019-02-23T09:17:37.930Z,50.37
2019-02-23T09:20:08.870Z,48.23
2019-02-23T09:22:38.806Z,43.83
2019-02-23T09:25:13.937Z,48.70
2019-02-23T09:27:46.648Z,38.93
2019-02-23T09:30:18.199Z,41.20
2019-02-23T09:32:49.371Z,44.67
2019-02-23T09:35:23.095Z,46.23
2019-02-23T09:37:56.154Z,36.83
2019-02-23T09:40:26.037Z,38.20
2019-02-23T09:42:55.930Z,37.50
2019-02-23T09:45:25.846Z,31.17
2019-02-23T09:47:55.598Z,36.53
2019-02-23T09:50:26.871Z,36.23
2019-02-23T09:53:10.493Z,43.23
2019-02-23T09:55:32.602Z,35.43
2019-02-23T09:58:04.797Z,33.10
2019-02-23T10:00:34.889Z,32.30
2019-02-23T10:03:07.692Z,35.73
2019-02-23T10:05:38.223Z,39.63
2019-02-23T10:08:08.288Z,32.20
2019-02-23T10:10:38.197Z,38.80
2019-02-23T10:13:08.059Z,37.00
2019-02-23T10:15:37.821Z,39.63
2019-02-23T10:18:07.610Z,30.87
2019-02-23T10:20:37.332Z,32.73
2019-02-23T10:23:07.694Z,36.07
2019-02-23T10:25:37.377Z,33.87
2019-02-23T10:28:09.851Z,29.77
2019-02-23T10:30:39.670Z,26.00
2019-02-23T10:33:09.587Z,36.80
2019-02-23T10:35:42.756Z,32.00
2019-02-23T10:38:12.631Z,32.80
2019-02-23T10:40:46.724Z,34.03
2019-02-23T10:43:16.415Z,34.13
2019-02-23T10:45:48.037Z,32.87
2019-02-23T10:48:21.394Z,32.23
2019-02-23T10:50:53.834Z,27.87
2019-02-23T10:53:32.637Z,35.57
2019-02-23T10:55:55.339Z,27.63
2019-02-23T10:58:28.166Z,29.90
2019-02-23T11:00:58.059Z,29.10
2019-02-23T11:03:29.042Z,29.17
2019-02-23T11:06:00.783Z,26.10
2019-02-23T11:08:30.483Z,35.10
2019-02-23T11:11:00.280Z,28.97
2019-02-23T11:13:30.083Z,24.63
2019-02-23T11:15:59.928Z,30.10
2019-02-23T11:18:29.768Z,25.80
2019-02-23T11:21:00.518Z,30.77
2019-02-23T11:23:30.390Z,32.30
2019-02-23T11:26:00.365Z,32.53
2019-02-23T11:28:30.305Z,31.83
2019-02-23T11:31:00.655Z,28.97
2019-02-23T11:33:33.478Z,29.70
2019-02-23T11:36:05.187Z,33.17
2019-02-23T11:38:34.907Z,32.37
2019-02-23T11:41:04.800Z,35.13
2019-02-23T11:43:34.650Z,26.27
2019-02-23T11:46:04.451Z,34.00
2019-02-23T11:48:34.266Z,26.93
2019-02-23T11:51:04.096Z,29.60
2019-02-23T11:53:33.849Z,31.37
2019-02-23T11:56:06.098Z,25.63
2019-02-23T11:58:41.585Z,29.43
2019-02-23T12:01:11.334Z,29.73
2019-02-23T12:03:42.238Z,37.10
2019-02-23T12:06:13.034Z,29.87
2019-02-23T12:08:42.918Z,25.97
2019-02-23T12:11:15.409Z,27.13
2019-02-23T12:13:46.458Z,23.13
2019-02-23T12:16:27.730Z,28.83
2019-02-23T12:18:57.528Z,29.03
2019-02-23T12:21:29.058Z,21.57
2019-02-23T12:24:05.876Z,24.73
2019-02-23T12:26:31.258Z,23.63
2019-02-23T12:29:01.102Z,24.40
2019-02-23T12:31:30.950Z,26.90
2019-02-23T12:34:01.867Z,23.50
2019-02-23T12:36:31.689Z,27.73
2019-02-23T12:39:01.531Z,26.30
2019-02-23T12:41:35.400Z,27.27
2019-02-23T12:44:08.746Z,30.40
2019-02-23T12:46:40.599Z,24.00
2019-02-23T12:49:10.370Z,25.63
2019-02-23T12:51:40.079Z,24.47
2019-02-23T12:54:16.891Z,22.83
2019-02-23T12:56:41.649Z,20.60
2019-02-23T12:59:11.588Z,26.80
2019-02-23T13:01:41.440Z,21.17
2019-02-23T13:04:11.170Z,24.40
2019-02-23T13:06:41.917Z,21.80
2019-02-23T13:09:16.322Z,21.30
2019-02-23T13:12:09.616Z,20.50
2019-02-23T13:15:00.677Z,24.90
2019-02-23T13:18:07.338Z,21.67
2019-02-23T13:20:54.957Z,21.13
2019-02-23T13:23:54.000Z,22.37
2019-02-23T13:26:44.764Z,21.80
2019-02-23T13:29:36.930Z,28.93
2019-02-23T13:32:26.390Z,33.13
2019-02-23T13:35:38.098Z,26.90
2019-02-23T13:38:28.999Z,20.87
2019-02-23T13:41:54.322Z,23.73
2019-02-23T13:45:02.119Z,19.77
2019-02-23T13:48:10.786Z,28.47
2019-02-23T13:51:11.116Z,26.90
2019-02-23T13:54:04.458Z,21.07
2019-02-23T13:57:18.455Z,24.23
2019-02-23T14:00:37.675Z,24.50
2019-02-23T14:03:51.077Z,28.07
2019-02-23T14:06:29.954Z,23.63
2019-02-23T14:09:37.664Z,19.47
2019-02-23T14:12:31.102Z,20.97
2019-02-23T14:16:03.478Z,21.30
2019-02-23T14:18:47.126Z,22.70
2019-02-23T14:21:45.305Z,25.03
2019-02-23T14:25:04.580Z,20.87
2019-02-23T14:28:07.019Z,19.53
2019-02-23T14:31:24.141Z,23.27
2019-02-23T14:34:18.943Z,24.97
2019-02-23T14:37:18.798Z,24.43
2019-02-23T14:40:48.078Z,21.33
2019-02-23T14:43:31.425Z,22.10
2019-02-23T14:46:37.167Z,23.43
2019-02-23T14:49:17.790Z,21.40
2019-02-23T14:52:42.757Z,24.83
2019-02-23T14:55:40.987Z,25.53
2019-02-23T14:58:48.669Z,20.53
2019-02-23T15:02:15.337Z,19.77
2019-02-23T15:05:29.270Z,22.57
2019-02-23T15:08:26.250Z,26.33
2019-02-23T15:11:36.495Z,22.97
2019-02-23T15:14:53.208Z,20.30
2019-02-23T15:17:50.101Z,24.23
2019-02-23T15:20:41.934Z,21.77
2019-02-23T15:23:31.403Z,26.53
2019-02-23T15:26:41.895Z,26.60
2019-02-23T15:29:33.865Z,22.93
2019-02-23T15:32:24.814Z,29.13
2019-02-23T15:35:15.307Z,31.73
2019-02-23T15:38:33.707Z,29.43
2019-02-23T15:41:34.822Z,21.60
2019-02-23T15:44:46.534Z,27.60
2019-02-23T15:47:37.970Z,28.83
2019-02-23T15:50:13.115Z,31.60
2019-02-23T15:52:39.311Z,28.13
2019-02-23T15:55:09.224Z,28.77
2019-02-23T15:57:39.094Z,24.97
2019-02-23T16:00:09.069Z,28.00
2019-02-23T16:02:39.807Z,26.77
2019-02-23T16:05:09.678Z,27.47
2019-02-23T16:07:39.964Z,26.63
2019-02-23T16:10:09.852Z,29.97
2019-02-23T16:12:43.198Z,28.63
2019-02-23T16:15:13.627Z,31.90
2019-02-23T16:17:46.158Z,29.33
2019-02-23T16:20:15.867Z,32.17
2019-02-23T16:22:52.929Z,27.90
2019-02-23T16:25:23.730Z,29.73
2019-02-23T16:27:53.438Z,30.23
2019-02-23T16:30:23.138Z,34.87
2019-02-23T16:32:54.009Z,28.87
2019-02-23T16:35:27.321Z,26.93
2019-02-23T16:37:57.116Z,32.83
2019-02-23T16:40:27.170Z,31.27
2019-02-23T16:42:56.982Z,25.83
2019-02-23T16:45:28.405Z,27.50
2019-02-23T16:48:07.870Z,28.20
2019-02-23T16:50:37.687Z,28.27
2019-02-23T16:53:07.967Z,25.37
2019-02-23T16:55:37.771Z,24.33
2019-02-23T16:58:07.619Z,30.17
2019-02-23T17:00:37.837Z,30.80
2019-02-23T17:03:07.615Z,28.73
2019-02-23T17:05:37.574Z,31.07
2019-02-23T17:08:07.519Z,28.23
2019-02-23T17:10:37.329Z,30.50
2019-02-23T17:13:07.239Z,26.23
2019-02-23T17:15:36.937Z,31.57
2019-02-23T17:18:06.731Z,26.57
2019-02-23T17:20:38.718Z,26.83
2019-02-23T17:23:08.436Z,28.17
2019-02-23T17:25:38.145Z,30.13
2019-02-23T17:28:08.014Z,27.53
2019-02-23T17:30:39.205Z,30.77
2019-02-23T17:33:09.183Z,32.37
2019-02-23T17:35:42.911Z,24.10
2019-02-23T17:38:16.396Z,28.80
2019-02-23T17:40:45.205Z,28.57
2019-02-23T17:43:14.978Z,24.80
2019-02-23T17:45:44.677Z,25.90
2019-02-23T17:48:19.474Z,26.20
2019-02-23T17:50:50.709Z,25.53
2019-02-23T17:53:20.643Z,27.93
2019-02-23T17:55:53.667Z,21.33
2019-02-23T17:58:23.389Z,21.80
2019-02-23T18:00:53.178Z,23.67
2019-02-23T18:03:22.877Z,26.80
2019-02-23T18:05:52.586Z,21.33
2019-02-23T18:08:25.419Z,21.77
2019-02-23T18:11:01.152Z,25.40
2019-02-23T18:13:31.024Z,26.07
2019-02-23T18:16:05.053Z,24.97
2019-02-23T18:18:32.375Z,21.60
2019-02-23T18:21:02.154Z,20.13
2019-02-23T18:23:31.927Z,24.13
2019-02-23T18:26:02.865Z,28.57
2019-02-23T18:28:32.647Z,30.87
2019-02-23T18:31:07.265Z,22.87
2019-02-23T18:33:37.516Z,23.33
2019-02-23T18:36:07.368Z,27.50
2019-02-23T18:38:37.084Z,25.00
2019-02-23T18:41:13.306Z,23.63
2019-02-23T18:43:43.014Z,26.13
2019-02-23T18:46:12.819Z,26.57
2019-02-23T18:48:42.795Z,31.40
2019-02-23T18:51:18.104Z,30.30
2019-02-23T18:53:48.906Z,28.10
2019-02-23T18:56:18.619Z,26.40
2019-02-23T18:58:48.320Z,19.50
2019-02-23T19:01:18.027Z,25.33
2019-02-23T19:03:49.000Z,22.13
2019-02-23T19:06:18.786Z,28.33
2019-02-23T19:08:50.830Z,22.73
2019-02-23T19:11:20.622Z,23.40
2019-02-23T19:13:51.500Z,24.47
2019-02-23T19:16:23.405Z,22.33
2019-02-23T19:18:52.726Z,21.50
2019-02-23T19:21:33.214Z,22.53
2019-02-23T19:24:04.078Z,25.23
2019-02-23T19:26:38.259Z,18.80
2019-02-23T19:29:05.414Z,19.70
2019-02-23T19:31:35.161Z,19.70
2019-02-23T19:34:06.222Z,25.63
2019-02-23T19:36:36.032Z,25.70
2019-02-23T19:39:06.163Z,22.80
2019-02-23T19:41:36.902Z,19.30
2019-02-23T19:44:06.707Z,22.10
2019-02-23T19:46:41.350Z,20.20
2019-02-23T19:49:11.390Z,21.80
2019-02-23T19:51:41.318Z,22.40
2019-02-23T19:54:11.115Z,19.73
2019-02-23T19:56:46.863Z,20.07
2019-02-23T19:59:20.107Z,21.33
2019-02-23T20:01:49.810Z,22.60
2019-02-23T20:04:19.554Z,23.40
2019-02-23T20:06:49.847Z,22.37
2019-02-23T20:09:19.662Z,30.33
2019-02-23T20:11:49.650Z,22.07
2019-02-23T20:14:19.330Z,23.53
2019-02-23T20:16:49.143Z,25.23
2019-02-23T20:19:19.782Z,22.27
2019-02-23T20:21:49.888Z,27.07
2019-02-23T20:24:19.730Z,22.43
2019-02-23T20:26:55.413Z,24.37
2019-02-23T20:29:21.338Z,23.20
2019-02-23T20:31:55.763Z,21.40
2019-02-23T20:34:28.818Z,28.03
2019-02-23T20:36:59.609Z,25.00
2019-02-23T20:39:29.446Z,18.70
2019-02-23T20:41:59.967Z,26.13
2019-02-23T20:44:29.659Z,22.07
2019-02-23T20:46:59.479Z,32.43
2019-02-23T20:49:29.480Z,22.30
2019-02-23T20:52:04.266Z,26.13
2019-02-23T20:54:37.296Z,21.20
2019-02-23T20:57:14.029Z,27.00
2019-02-23T20:59:44.400Z,27.33
2019-02-23T21:02:22.686Z,19.97
2019-02-23T21:04:52.413Z,23.93
2019-02-23T21:07:27.189Z,28.67
2019-02-23T21:09:58.850Z,26.23
2019-02-23T21:12:28.649Z,23.27
2019-02-23T21:15:00.854Z,19.90
2019-02-23T21:17:30.815Z,22.43
2019-02-23T21:20:03.023Z,21.60
2019-02-23T21:22:34.518Z,22.50
2019-02-23T21:25:04.506Z,24.10
2019-02-23T21:27:34.324Z,25.57
2019-02-23T21:30:04.721Z,25.07
2019-02-23T21:32:36.079Z,25.30
2019-02-23T21:35:07.427Z,21.67
2019-02-23T21:37:37.181Z,18.13
2019-02-23T21:40:07.383Z,23.47
2019-02-23T21:42:37.337Z,23.07
2019-02-23T21:45:07.298Z,22.33
2019-02-23T21:47:38.146Z,24.47
2019-02-23T21:50:10.877Z,26.17
2019-02-23T21:52:40.575Z,25.43
2019-02-23T21:55:10.470Z,27.03
2019-02-23T21:57:40.230Z,21.23
2019-02-23T22:00:12.788Z,25.13
2019-02-23T22:02:42.478Z,19.77
2019-02-23T22:05:12.931Z,22.17
2019-02-23T22:07:43.008Z,26.87
2019-02-23T22:10:13.111Z,28.73
2019-02-23T22:12:42.823Z,23.43
2019-02-23T22:15:12.650Z,28.43
2019-02-23T22:17:42.616Z,31.90
2019-02-23T22:20:12.636Z,22.57
2019-02-23T22:22:42.567Z,32.20
2019-02-23T22:25:12.398Z,28.00
2019-02-23T22:27:42.221Z,22.30
2019-02-23T22:30:13.023Z,28.30
2019-02-23T22:32:45.233Z,42.43
2019-02-23T22:35:17.702Z,37.93
2019-02-23T22:37:48.049Z,38.00
2019-02-23T22:40:17.989Z,21.80
2019-02-23T22:42:47.751Z,26.17
2019-02-23T22:45:17.582Z,31.50
2019-02-23T22:47:47.468Z,25.13
2019-02-23T22:50:17.374Z,28.20
2019-02-23T22:52:47.390Z,27.43
2019-02-23T22:55:17.234Z,26.50
2019-02-23T22:57:48.269Z,30.27
2019-02-23T23:00:23.946Z,20.50
2019-02-23T23:02:57.107Z,27.97
2019-02-23T23:05:26.946Z,26.90
2019-02-23T23:07:56.643Z,22.93
2019-02-23T23:10:27.598Z,25.07
2019-02-23T23:12:57.874Z,24.70
2019-02-23T23:15:27.619Z,26.53
2019-02-23T23:17:57.445Z,24.87
2019-02-23T23:20:27.343Z,31.00
2019-02-23T23:22:57.261Z,28.37
2019-02-23T23:25:27.126Z,27.20
2019-02-23T23:27:56.968Z,27.03
2019-02-23T23:30:26.876Z,24.30
2019-02-23T23:32:56.716Z,28.77
2019-02-23T23:35:26.638Z,28.50
2019-02-23T23:37:56.558Z,22.43
2019-02-23T23:40:26.481Z,23.77
2019-02-23T23:42:59.118Z,28.37
2019-02-23T23:45:30.026Z,27.40
2019-02-23T23:47:59.821Z,31.47
2019-02-23T23:50:29.591Z,22.97
2019-02-23T23:53:01.692Z,23.33
2019-02-23T23:55:31.522Z,24.43
2019-02-23T23:58:01.274Z,23.40
